createdAt,value
2018-07-19T00:00:04.575Z,15.20
2018-07-19T00:02:32.821Z,15.20
2018-07-19T00:05:01.092Z,15.20
2018-07-19T00:07:29.266Z,15.10
2018-07-19T00:09:57.578Z,15.00
2018-07-19T00:12:26.235Z,14.90
2018-07-19T00:14:54.643Z,14.70
2018-07-19T00:17:22.996Z,14.70
2018-07-19T00:19:51.262Z,14.60
2018-07-19T00:22:19.482Z,14.60
2018-07-19T00:24:47.703Z,14.70
2018-07-19T00:27:16.004Z,14.70
2018-07-19T00:29:44.272Z,14.60
2018-07-19T00:32:12.679Z,14.60
2018-07-19T00:34:40.880Z,14.50
2018-07-19T00:37:09.042Z,14.50
2018-07-19T00:39:37.406Z,14.60
2018-07-19T00:42:05.766Z,14.60
2018-07-19T00:44:34.003Z,14.60
2018-07-19T00:47:02.188Z,14.50
2018-07-19T00:49:30.411Z,14.40
2018-07-19T00:51:58.590Z,14.40
2018-07-19T00:54:26.979Z,14.40
2018-07-19T00:56:55.415Z,14.30
2018-07-19T00:59:23.803Z,14.30
2018-07-19T01:01:51.954Z,14.20
2018-07-19T01:04:20.177Z,14.20
2018-07-19T01:06:48.514Z,14.20
2018-07-19T01:09:16.787Z,14.20
2018-07-19T01:11:45.062Z,14.10
2018-07-19T01:14:13.264Z,14.10
2018-07-19T01:16:41.668Z,14.00
2018-07-19T01:19:09.876Z,14.00
2018-07-19T01:21:38.102Z,14.00
2018-07-19T01:24:06.471Z,14.00
2018-07-19T01:26:34.686Z,13.90
2018-07-19T01:29:02.935Z,13.90
2018-07-19T01:31:31.165Z,13.90
2018-07-19T01:33:59.403Z,13.90
2018-07-19T01:36:27.679Z,14.00
2018-07-19T01:38:56.025Z,14.00
2018-07-19T01:41:29.019Z,14.00
2018-07-19T01:43:57.267Z,14.00
2018-07-19T01:46:25.438Z,14.10
2018-07-19T01:48:53.703Z,14.00
2018-07-19T01:51:21.965Z,14.00
2018-07-19T01:53:50.227Z,13.90
2018-07-19T01:56:18.445Z,13.90
2018-07-19T01:58:46.730Z,13.80
2018-07-19T02:01:15.093Z,13.70
2018-07-19T02:03:43.411Z,13.70
2018-07-19T02:06:11.621Z,13.60
2018-07-19T02:08:39.821Z,13.50
2018-07-19T02:11:08.187Z,13.50
2018-07-19T02:13:36.488Z,13.50
2018-07-19T02:16:04.732Z,13.50
2018-07-19T02:18:33.013Z,13.40
2018-07-19T02:21:01.262Z,13.50
2018-07-19T02:23:29.493Z,13.50
2018-07-19T02:25:58.053Z,13.40
2018-07-19T02:28:26.279Z,13.40
2018-07-19T02:30:54.572Z,13.30
2018-07-19T02:33:22.991Z,13.30
2018-07-19T02:35:51.338Z,13.40
2018-07-19T02:38:19.567Z,13.40
2018-07-19T02:43:15.680Z,13.30
2018-07-19T02:45:43.906Z,13.40
2018-07-19T02:48:12.127Z,13.40
2018-07-19T02:50:40.498Z,13.30
2018-07-19T02:53:08.712Z,13.30
2018-07-19T02:55:36.995Z,13.40
2018-07-19T02:58:05.488Z,13.40
2018-07-19T03:03:01.708Z,13.30
2018-07-19T03:05:30.086Z,13.30
2018-07-19T03:07:58.437Z,13.30
2018-07-19T03:10:26.671Z,13.40
2018-07-19T03:12:54.858Z,13.20
2018-07-19T03:15:23.093Z,13.20
2018-07-19T03:20:19.228Z,13.40
2018-07-19T03:22:47.507Z,13.50
2018-07-19T03:25:15.660Z,13.60
2018-07-19T03:27:44.017Z,13.70
2018-07-19T03:30:12.408Z,13.80
2018-07-19T03:32:40.675Z,13.80
2018-07-19T03:35:08.996Z,13.90
2018-07-19T03:37:37.226Z,13.90
2018-07-19T03:40:05.581Z,14.00
2018-07-19T03:42:33.753Z,13.90
2018-07-19T03:45:01.970Z,13.90
2018-07-19T03:47:30.388Z,14.00
2018-07-19T03:49:59.384Z,14.00
2018-07-19T03:52:27.652Z,14.10
2018-07-19T03:54:55.894Z,14.20
2018-07-19T03:57:24.236Z,14.20
2018-07-19T03:59:52.485Z,14.20
2018-07-19T04:02:20.874Z,14.20
2018-07-19T04:04:49.107Z,14.20
2018-07-19T04:07:17.298Z,14.20
2018-07-19T04:09:45.507Z,14.20
2018-07-19T04:12:13.702Z,14.20
2018-07-19T04:17:09.926Z,14.30
2018-07-19T04:19:38.206Z,14.30
2018-07-19T04:22:06.602Z,14.30
2018-07-19T04:24:34.831Z,14.40
2018-07-19T04:27:03.026Z,14.40
2018-07-19T04:29:31.383Z,14.60
2018-07-19T04:31:59.724Z,15.20
2018-07-19T04:34:27.950Z,16.00
2018-07-19T04:36:56.209Z,16.70
2018-07-19T04:39:24.386Z,17.60
2018-07-19T04:41:52.638Z,18.20
2018-07-19T04:44:20.994Z,18.80
2018-07-19T04:46:51.635Z,19.20
2018-07-19T04:49:19.992Z,19.10
2018-07-19T04:51:48.273Z,19.50
2018-07-19T04:54:16.465Z,20.10
2018-07-19T04:56:44.734Z,20.70
2018-07-19T04:59:13.341Z,21.10
2018-07-19T05:01:41.937Z,21.30
2018-07-19T05:04:10.099Z,21.60
2018-07-19T05:09:07.145Z,22.00
2018-07-19T05:11:35.340Z,21.90
2018-07-19T05:14:03.845Z,21.90
2018-07-19T05:16:32.198Z,22.20
2018-07-19T05:19:00.634Z,22.70
2018-07-19T05:21:29.021Z,23.50
2018-07-19T05:23:57.263Z,23.70
2018-07-19T05:26:25.560Z,23.80
2018-07-19T05:28:53.810Z,23.80
2018-07-19T05:31:22.248Z,22.80
2018-07-19T05:33:50.753Z,21.90
2018-07-19T05:36:18.950Z,21.30
2018-07-19T05:38:47.339Z,20.30
2018-07-19T05:41:15.660Z,19.70
2018-07-19T05:43:43.942Z,19.10
2018-07-19T05:46:12.109Z,18.80
2018-07-19T05:48:40.439Z,18.50
2018-07-19T05:51:08.703Z,18.30
2018-07-19T05:53:36.975Z,18.00
2018-07-19T05:56:05.375Z,17.90
2018-07-19T05:58:33.669Z,17.80
2018-07-19T06:01:01.847Z,17.70
2018-07-19T06:03:30.264Z,17.70
2018-07-19T06:05:58.464Z,17.60
2018-07-19T06:08:26.747Z,17.70
2018-07-19T06:10:54.934Z,17.80
2018-07-19T06:13:23.367Z,17.90
2018-07-19T06:15:51.589Z,18.00
2018-07-19T06:18:19.860Z,18.00
2018-07-19T06:20:48.168Z,18.10
2018-07-19T06:23:16.544Z,18.00
2018-07-19T06:25:44.833Z,18.20
2018-07-19T06:28:13.161Z,18.20
2018-07-19T06:30:41.506Z,18.40
2018-07-19T06:33:09.786Z,18.60
2018-07-19T06:35:37.961Z,18.80
2018-07-19T06:38:06.181Z,18.90
2018-07-19T06:40:34.459Z,19.00
2018-07-19T06:43:02.762Z,19.10
2018-07-19T06:45:31.056Z,19.30
2018-07-19T06:47:59.257Z,19.40
2018-07-19T06:50:27.482Z,19.20
2018-07-19T06:52:57.031Z,19.30
2018-07-19T06:55:25.266Z,19.50
2018-07-19T06:57:53.771Z,19.60
2018-07-19T07:00:22.009Z,19.70
2018-07-19T07:02:50.278Z,19.80
2018-07-19T07:05:18.502Z,19.90
2018-07-19T07:10:14.734Z,20.10
2018-07-19T07:12:43.310Z,20.20
2018-07-19T07:15:11.513Z,20.10
2018-07-19T07:17:39.689Z,20.20
2018-07-19T07:20:07.930Z,20.30
2018-07-19T07:22:36.390Z,20.50
2018-07-19T07:25:04.791Z,20.80
2018-07-19T07:27:33.156Z,20.90
2018-07-19T07:30:01.350Z,21.20
2018-07-19T07:32:29.615Z,21.30
2018-07-19T07:34:58.015Z,21.20
2018-07-19T07:37:26.267Z,21.40
2018-07-19T07:39:54.649Z,21.50
2018-07-19T07:42:23.019Z,21.60
2018-07-19T07:44:51.372Z,21.80
2018-07-19T07:47:20.192Z,22.00
2018-07-19T07:49:48.401Z,22.10
2018-07-19T07:52:16.630Z,22.10
2018-07-19T07:54:45.127Z,22.30
2018-07-19T07:57:13.384Z,22.40
2018-07-19T07:59:41.772Z,22.50
2018-07-19T08:02:10.051Z,22.50
2018-07-19T08:04:38.275Z,22.60
2018-07-19T08:07:06.565Z,22.60
2018-07-19T08:09:34.863Z,22.80
2018-07-19T08:12:03.260Z,22.90
2018-07-19T08:14:31.509Z,23.00
2018-07-19T08:16:59.770Z,23.20
2018-07-19T08:19:28.183Z,23.00
2018-07-19T08:21:56.422Z,22.90
2018-07-19T08:24:24.861Z,23.10
2018-07-19T08:26:53.059Z,23.30
2018-07-19T08:29:21.530Z,23.50
2018-07-19T08:31:49.730Z,23.60
2018-07-19T08:34:18.175Z,23.70
2018-07-19T08:36:46.506Z,23.90
2018-07-19T08:39:15.202Z,23.90
2018-07-19T08:41:44.840Z,23.90
2018-07-19T08:44:13.172Z,24.00
2018-07-19T08:46:41.507Z,24.10
2018-07-19T08:49:09.702Z,24.30
2018-07-19T08:51:37.996Z,24.40
2018-07-19T08:54:06.705Z,24.50
2018-07-19T08:56:35.002Z,24.60
2018-07-19T08:59:03.246Z,24.80
2018-07-19T09:01:31.534Z,24.50
2018-07-19T09:03:59.845Z,24.60
2018-07-19T09:06:28.196Z,24.50
2018-07-19T09:08:56.453Z,24.80
2018-07-19T09:11:24.867Z,25.00
2018-07-19T09:13:53.066Z,25.10
2018-07-19T09:16:21.372Z,25.20
2018-07-19T09:18:49.598Z,25.10
2018-07-19T09:21:17.966Z,25.20
2018-07-19T09:23:46.312Z,25.00
2018-07-19T09:26:14.724Z,25.20
2018-07-19T09:28:42.922Z,25.30
2018-07-19T09:31:14.262Z,25.40
2018-07-19T09:36:10.266Z,25.80
2018-07-19T09:38:38.686Z,25.90
2018-07-19T09:41:06.875Z,25.90
2018-07-19T09:43:35.384Z,26.00
2018-07-19T09:46:03.688Z,26.10
2018-07-19T09:48:31.840Z,26.20
2018-07-19T09:51:00.129Z,26.20
2018-07-19T09:53:28.297Z,26.00
2018-07-19T09:55:56.632Z,25.80
2018-07-19T09:58:24.862Z,25.60
2018-07-19T10:00:58.461Z,25.60
2018-07-19T10:03:26.695Z,25.40
2018-07-19T10:05:55.134Z,25.30
2018-07-19T10:08:23.358Z,25.20
2018-07-19T10:10:51.771Z,25.10
2018-07-19T10:13:19.953Z,24.70
2018-07-19T10:15:48.126Z,24.80
2018-07-19T10:18:16.496Z,24.90
2018-07-19T10:20:44.893Z,24.90
2018-07-19T10:23:13.144Z,24.70
2018-07-19T10:25:41.323Z,24.70
2018-07-19T10:28:09.678Z,24.80
2018-07-19T10:30:38.074Z,24.90
2018-07-19T10:33:06.278Z,25.00
2018-07-19T10:35:34.602Z,25.20
2018-07-19T10:38:02.775Z,25.40
2018-07-19T10:40:31.080Z,25.50
2018-07-19T10:45:27.343Z,25.30
2018-07-19T10:47:55.819Z,25.40
2018-07-19T10:50:24.018Z,25.50
2018-07-19T10:52:52.867Z,25.50
2018-07-19T10:55:21.134Z,25.50
2018-07-19T10:57:49.356Z,25.40
2018-07-19T11:00:17.615Z,25.40
2018-07-19T11:02:45.910Z,25.20
2018-07-19T11:05:14.057Z,25.20
2018-07-19T11:07:42.314Z,25.10
2018-07-19T11:10:10.646Z,25.00
2018-07-19T11:12:38.862Z,25.10
2018-07-19T11:15:07.120Z,25.30
2018-07-19T11:17:35.434Z,25.40
2018-07-19T11:20:03.770Z,25.60
2018-07-19T11:22:32.088Z,25.70
2018-07-19T11:25:00.442Z,25.80
2018-07-19T11:27:28.620Z,26.00
2018-07-19T11:29:57.060Z,26.30
2018-07-19T11:32:25.395Z,26.50
2018-07-19T11:34:53.861Z,26.60
2018-07-19T11:37:22.164Z,26.70
2018-07-19T11:39:50.498Z,26.70
2018-07-19T11:42:18.684Z,26.30
2018-07-19T11:44:46.884Z,26.50
2018-07-19T11:47:15.150Z,26.70
2018-07-19T11:49:43.370Z,26.90
2018-07-19T11:52:11.850Z,26.80
2018-07-19T11:54:40.146Z,27.00
2018-07-19T11:57:08.527Z,26.70
2018-07-19T11:59:36.730Z,26.80
2018-07-19T12:02:05.013Z,26.40
2018-07-19T12:04:33.254Z,26.60
2018-07-19T12:07:01.492Z,26.60
2018-07-19T12:09:29.740Z,26.30
2018-07-19T12:11:57.979Z,26.20
2018-07-19T12:14:26.251Z,26.40
2018-07-19T12:16:54.579Z,26.70
2018-07-19T12:21:50.816Z,26.90
2018-07-19T12:24:18.995Z,26.70
2018-07-19T12:26:47.260Z,26.70
2018-07-19T12:29:15.544Z,26.50
2018-07-19T12:31:44.032Z,26.50
2018-07-19T12:34:12.445Z,26.60
2018-07-19T12:36:40.666Z,26.70
2018-07-19T12:39:10.322Z,26.80
2018-07-19T12:41:38.576Z,26.80
2018-07-19T12:44:06.751Z,26.90
2018-07-19T12:46:34.917Z,26.80
2018-07-19T12:49:03.389Z,26.70
2018-07-19T12:51:31.749Z,26.80
2018-07-19T12:54:00.157Z,26.90
2018-07-19T12:56:28.463Z,26.80
2018-07-19T12:58:57.105Z,26.80
2018-07-19T13:01:25.291Z,26.90
2018-07-19T13:03:53.543Z,27.00
2018-07-19T13:06:21.937Z,27.00
2018-07-19T13:08:50.405Z,26.90
2018-07-19T13:11:18.618Z,27.10
2018-07-19T13:13:46.807Z,27.30
2018-07-19T13:16:15.582Z,27.40
2018-07-19T13:18:43.942Z,27.50
2018-07-19T13:21:12.280Z,27.70
2018-07-19T13:23:40.995Z,27.90
2018-07-19T13:26:09.160Z,27.80
2018-07-19T13:28:37.555Z,27.90
2018-07-19T13:31:05.966Z,27.80
2018-07-19T13:33:34.242Z,27.90
2018-07-19T13:36:02.553Z,27.90
2018-07-19T13:38:31.074Z,28.00
2018-07-19T13:40:59.731Z,28.10
2018-07-19T13:43:28.162Z,28.30
2018-07-19T13:45:56.324Z,28.40
2018-07-19T13:48:24.676Z,28.40
2018-07-19T13:50:52.946Z,28.00
2018-07-19T13:53:27.545Z,28.00
2018-07-19T13:55:55.820Z,27.70
2018-07-19T13:58:24.926Z,27.50
2018-07-19T14:00:53.573Z,27.70
2018-07-19T14:03:22.040Z,28.00
2018-07-19T14:05:50.263Z,28.00
2018-07-19T14:08:19.015Z,27.80
2018-07-19T14:10:47.524Z,27.90
2018-07-19T14:13:15.867Z,28.00
2018-07-19T14:15:43.994Z,28.20
2018-07-19T14:18:12.290Z,28.30
2018-07-19T14:20:40.539Z,28.10
2018-07-19T14:23:08.790Z,27.80
2018-07-19T14:25:37.244Z,27.50
2018-07-19T14:28:05.565Z,27.40
2018-07-19T14:30:33.708Z,27.50
2018-07-19T14:33:01.963Z,27.40
2018-07-19T14:35:30.278Z,27.40
2018-07-19T14:37:58.465Z,27.40
2018-07-19T14:40:26.658Z,27.40
2018-07-19T14:42:55.159Z,27.40
2018-07-19T14:45:23.604Z,27.40
2018-07-19T14:47:52.338Z,27.50
2018-07-19T14:50:20.637Z,27.60
2018-07-19T14:52:48.929Z,27.70
2018-07-19T14:55:17.233Z,27.70
2018-07-19T14:57:45.419Z,27.70
2018-07-19T15:00:13.638Z,27.60
2018-07-19T15:02:42.028Z,27.70
2018-07-19T15:05:10.267Z,27.70
2018-07-19T15:07:38.525Z,27.90
2018-07-19T15:12:34.822Z,27.50
2018-07-19T15:15:03.351Z,27.60
2018-07-19T15:17:31.578Z,27.70
2018-07-19T15:19:59.768Z,27.40
2018-07-19T15:22:28.002Z,27.40
2018-07-19T15:24:56.271Z,27.60
2018-07-19T15:27:24.459Z,27.90
2018-07-19T15:29:52.781Z,28.10
2018-07-19T15:32:21.033Z,28.00
2018-07-19T15:34:49.360Z,28.00
2018-07-19T15:39:45.781Z,27.90
2018-07-19T15:42:13.962Z,27.70
2018-07-19T15:44:42.210Z,27.70
2018-07-19T15:47:10.378Z,27.70
2018-07-19T15:49:38.659Z,27.70
2018-07-19T15:52:06.949Z,27.80
2018-07-19T15:54:35.189Z,27.80
2018-07-19T15:57:03.584Z,27.80
2018-07-19T15:59:31.967Z,27.40
2018-07-19T16:02:00.208Z,27.50
2018-07-19T16:04:28.582Z,27.50
2018-07-19T16:06:57.043Z,27.40
2018-07-19T16:09:25.241Z,27.30
2018-07-19T16:11:53.447Z,27.40
2018-07-19T16:14:22.048Z,27.30
2018-07-19T16:16:50.210Z,27.10
2018-07-19T16:19:18.872Z,27.20
2018-07-19T16:21:47.201Z,27.30
2018-07-19T16:24:15.469Z,27.40
2018-07-19T16:26:43.829Z,27.10
2018-07-19T16:29:12.066Z,26.90
2018-07-19T16:31:40.242Z,27.10
2018-07-19T16:34:08.595Z,27.30
2018-07-19T16:36:36.819Z,27.20
2018-07-19T16:39:06.755Z,27.30
2018-07-19T16:41:35.223Z,27.40
2018-07-19T16:44:03.502Z,27.60
2018-07-19T16:46:31.838Z,27.70
2018-07-19T16:49:00.025Z,27.80
2018-07-19T16:51:28.360Z,27.90
2018-07-19T16:53:56.878Z,27.70
2018-07-19T16:56:25.395Z,27.70
2018-07-19T16:58:53.952Z,27.70
2018-07-19T17:01:22.166Z,27.70
2018-07-19T17:03:50.419Z,27.80
2018-07-19T17:06:18.639Z,27.90
2018-07-19T17:08:47.057Z,27.90
2018-07-19T17:11:15.383Z,27.80
2018-07-19T17:13:43.653Z,27.80
2018-07-19T17:16:11.982Z,27.80
2018-07-19T17:18:40.295Z,27.70
2018-07-19T17:21:08.587Z,27.70
2018-07-19T17:23:36.773Z,27.60
2018-07-19T17:26:05.159Z,27.60
2018-07-19T17:28:33.370Z,27.50
2018-07-19T17:31:01.772Z,27.50
2018-07-19T17:33:29.994Z,27.60
2018-07-19T17:35:58.376Z,27.50
2018-07-19T17:38:26.652Z,27.30
2018-07-19T17:40:55.075Z,27.20
2018-07-19T17:43:23.513Z,27.10
2018-07-19T17:45:51.747Z,27.00
2018-07-19T17:48:20.305Z,26.90
2018-07-19T17:50:48.895Z,26.90
2018-07-19T17:53:17.363Z,26.80
2018-07-19T17:55:45.749Z,26.80
2018-07-19T17:58:14.072Z,26.70
2018-07-19T18:00:42.432Z,26.70
2018-07-19T18:03:10.654Z,26.70
2018-07-19T18:05:38.949Z,26.70
2018-07-19T18:08:07.358Z,26.60
2018-07-19T18:10:35.777Z,26.50
2018-07-19T18:13:04.166Z,26.50
2018-07-19T18:15:32.396Z,26.40
2018-07-19T18:18:00.640Z,26.40
2018-07-19T18:20:28.980Z,26.40
2018-07-19T18:22:57.371Z,26.40
2018-07-19T18:25:25.649Z,26.30
2018-07-19T18:27:53.849Z,26.20
2018-07-19T18:30:22.195Z,26.20
2018-07-19T18:32:50.633Z,26.00
2018-07-19T18:35:19.380Z,25.80
2018-07-19T18:37:47.764Z,25.70
2018-07-19T18:40:16.047Z,25.60
2018-07-19T18:42:44.402Z,25.40
2018-07-19T18:45:12.992Z,25.30
2018-07-19T18:47:41.438Z,25.30
2018-07-19T18:50:09.653Z,25.30
2018-07-19T18:52:38.049Z,25.20
2018-07-19T18:55:06.327Z,25.10
2018-07-19T18:57:34.618Z,24.80
2018-07-19T19:00:03.096Z,24.60
2018-07-19T19:02:31.546Z,24.60
2018-07-19T19:04:59.902Z,24.60
2018-07-19T19:07:28.188Z,24.60
2018-07-19T19:09:56.589Z,24.60
2018-07-19T19:12:24.875Z,24.60
2018-07-19T19:14:53.124Z,24.50
2018-07-19T19:17:21.539Z,24.30
2018-07-19T19:19:49.816Z,24.00
2018-07-19T19:22:18.309Z,23.70
2018-07-19T19:24:46.519Z,23.60
2018-07-19T19:27:14.747Z,23.40
2018-07-19T19:29:43.001Z,23.20
2018-07-19T19:32:11.240Z,23.00
2018-07-19T19:34:39.482Z,22.90
2018-07-19T19:37:07.901Z,22.80
2018-07-19T19:39:36.371Z,22.60
2018-07-19T19:42:04.671Z,22.50
2018-07-19T19:44:33.084Z,22.40
2018-07-19T19:47:01.350Z,22.20
2018-07-19T19:49:29.730Z,22.00
2018-07-19T19:51:58.112Z,22.00
2018-07-19T19:54:26.800Z,21.90
2018-07-19T19:56:55.304Z,21.80
2018-07-19T19:59:23.638Z,21.70
2018-07-19T20:01:52.158Z,21.50
2018-07-19T20:04:20.418Z,21.50
2018-07-19T20:06:49.007Z,21.30
2018-07-19T20:09:17.253Z,21.20
2018-07-19T20:14:20.550Z,21.10
2018-07-19T20:16:48.880Z,21.10
2018-07-19T20:19:17.416Z,21.00
2018-07-19T20:21:45.815Z,21.00
2018-07-19T20:24:14.070Z,20.90
2018-07-19T20:26:42.476Z,20.80
2018-07-19T20:29:10.710Z,20.60
2018-07-19T20:31:39.237Z,20.50
2018-07-19T20:34:07.516Z,20.30
2018-07-19T20:36:35.846Z,20.20
2018-07-19T20:39:06.028Z,20.10
2018-07-19T20:41:34.397Z,20.00
2018-07-19T20:44:02.745Z,20.00
2018-07-19T20:46:31.005Z,20.00
2018-07-19T20:48:59.338Z,20.00
2018-07-19T20:51:27.729Z,20.10
2018-07-19T20:53:55.987Z,20.00
2018-07-19T20:56:24.438Z,20.00
2018-07-19T20:58:52.729Z,19.90
2018-07-19T21:01:21.375Z,19.90
2018-07-19T21:03:49.794Z,19.80
2018-07-19T21:06:18.077Z,19.60
2018-07-19T21:08:46.545Z,19.60
2018-07-19T21:11:14.825Z,19.50
2018-07-19T21:13:43.353Z,19.30
2018-07-19T21:16:11.647Z,19.40
2018-07-19T21:18:39.847Z,19.30
2018-07-19T21:21:08.114Z,19.10
2018-07-19T21:23:36.454Z,18.90
2018-07-19T21:26:04.803Z,18.80
2018-07-19T21:28:33.057Z,18.80
2018-07-19T21:31:01.575Z,18.70
2018-07-19T21:33:29.937Z,18.60
2018-07-19T21:35:58.176Z,18.60
2018-07-19T21:38:26.582Z,18.50
2018-07-19T21:43:22.901Z,18.10
2018-07-19T21:45:51.294Z,18.10
2018-07-19T21:48:19.648Z,18.20
2018-07-19T21:50:47.936Z,18.20
2018-07-19T21:53:16.239Z,18.10
2018-07-19T21:55:44.553Z,18.00
2018-07-19T21:58:12.890Z,18.10
2018-07-19T22:00:46.722Z,18.00
2018-07-19T22:03:15.076Z,18.00
2018-07-19T22:05:43.619Z,18.00
2018-07-19T22:08:11.902Z,17.90
2018-07-19T22:10:40.146Z,17.80
2018-07-19T22:13:08.435Z,17.80
2018-07-19T22:15:36.947Z,17.60
2018-07-19T22:18:05.145Z,17.70
2018-07-19T22:20:33.475Z,17.60
2018-07-19T22:23:01.702Z,17.50
2018-07-19T22:25:29.934Z,17.50
2018-07-19T22:27:58.134Z,17.50
2018-07-19T22:30:26.342Z,17.30
2018-07-19T22:32:54.575Z,17.30
2018-07-19T22:35:22.847Z,17.20
2018-07-19T22:37:51.048Z,17.30
2018-07-19T22:40:19.584Z,17.30
2018-07-19T22:42:47.854Z,17.40
2018-07-19T22:45:16.070Z,17.40
2018-07-19T22:47:44.248Z,17.30
2018-07-19T22:50:12.590Z,17.20
2018-07-19T22:52:40.747Z,17.00
2018-07-19T22:55:09.074Z,17.00
2018-07-19T22:57:37.208Z,16.90
2018-07-19T23:00:05.486Z,16.80
2018-07-19T23:02:33.777Z,16.80
2018-07-19T23:05:02.233Z,16.70
2018-07-19T23:07:30.461Z,16.70
2018-07-19T23:09:58.771Z,16.70
2018-07-19T23:12:27.005Z,16.70
2018-07-19T23:14:55.359Z,16.70
2018-07-19T23:17:23.846Z,16.60
2018-07-19T23:19:52.227Z,16.60
2018-07-19T23:22:20.467Z,16.60
2018-07-19T23:24:48.829Z,16.50
2018-07-19T23:27:17.245Z,16.50
2018-07-19T23:29:45.487Z,16.50
2018-07-19T23:32:13.730Z,16.40
2018-07-19T23:34:42.199Z,16.40
2018-07-19T23:37:34.427Z,16.40
2018-07-19T23:40:07.656Z,16.30
2018-07-19T23:42:38.779Z,16.30
2018-07-19T23:45:12.301Z,16.30
2018-07-19T23:47:42.188Z,16.30
2018-07-19T23:50:10.731Z,16.20
2018-07-19T23:52:39.109Z,16.20
2018-07-19T23:55:07.616Z,16.20
2018-07-19T23:57:35.953Z,16.20
